sensor_id;sensor_type;location;lat;lon;timestamp;P1;durP1;ratioP1;P2;durP2;ratioP2
26946;SDS011;14501;52.282;10.560;2023-01-09T00:00:51;3.90;;;1.60;;
26946;SDS011;14501;52.282;10.560;2023-01-09T00:03:17;2.25;;;1.52;;
26946;SDS011;14501;52.282;10.560;2023-01-09T00:05:42;1.77;;;1.67;;
26946;SDS011;14501;52.282;10.560;2023-01-09T00:08:08;1.88;;;1.63;;
26946;SDS011;14501;52.282;10.560;2023-01-09T00:10:34;3.13;;;1.75;;
26946;SDS011;14501;52.282;10.560;2023-01-09T00:12:59;2.17;;;1.88;;
26946;SDS011;14501;52.282;10.560;2023-01-09T00:15:25;2.95;;;1.88;;
26946;SDS011;14501;52.282;10.560;2023-01-09T00:17:51;2.88;;;1.88;;
26946;SDS011;14501;52.282;10.560;2023-01-09T00:20:16;2.35;;;2.15;;
26946;SDS011;14501;52.282;10.560;2023-01-09T00:22:42;3.55;;;2.10;;
26946;SDS011;14501;52.282;10.560;2023-01-09T00:25:08;3.50;;;2.15;;
26946;SDS011;14501;52.282;10.560;2023-01-09T00:27:34;3.08;;;1.60;;
26946;SDS011;14501;52.282;10.560;2023-01-09T00:30:01;3.67;;;2.17;;
26946;SDS011;14501;52.282;10.560;2023-01-09T00:32:27;2.58;;;2.30;;
26946;SDS011;14501;52.282;10.560;2023-01-09T00:34:53;3.67;;;2.15;;
26946;SDS011;14501;52.282;10.560;2023-01-09T00:37:19;2.67;;;1.98;;
26946;SDS011;14501;52.282;10.560;2023-01-09T00:39:45;3.80;;;2.08;;
26946;SDS011;14501;52.282;10.560;2023-01-09T00:42:15;4.80;;;1.83;;
26946;SDS011;14501;52.282;10.560;2023-01-09T00:44:55;3.10;;;2.08;;
26946;SDS011;14501;52.282;10.560;2023-01-09T00:47:28;3.67;;;1.80;;
26946;SDS011;14501;52.282;10.560;2023-01-09T00:49:58;2.55;;;1.77;;
26946;SDS011;14501;52.282;10.560;2023-01-09T00:52:30;2.78;;;2.00;;
26946;SDS011;14501;52.282;10.560;2023-01-09T00:54:57;2.95;;;2.05;;
26946;SDS011;14501;52.282;10.560;2023-01-09T00:57:24;2.85;;;2.20;;
26946;SDS011;14501;52.282;10.560;2023-01-09T00:59:50;2.83;;;2.20;;
26946;SDS011;14501;52.282;10.560;2023-01-09T01:02:16;4.47;;;2.22;;
26946;SDS011;14501;52.282;10.560;2023-01-09T01:04:42;2.42;;;2.22;;
26946;SDS011;14501;52.282;10.560;2023-01-09T01:07:26;2.30;;;2.10;;
26946;SDS011;14501;52.282;10.560;2023-01-09T01:10:04;2.58;;;2.05;;
26946;SDS011;14501;52.282;10.560;2023-01-09T01:12:37;2.40;;;2.20;;
26946;SDS011;14501;52.282;10.560;2023-01-09T01:15:04;3.65;;;2.25;;
26946;SDS011;14501;52.282;10.560;2023-01-09T01:17:35;2.65;;;1.60;;
26946;SDS011;14501;52.282;10.560;2023-01-09T01:20:02;4.60;;;2.22;;
26946;SDS011;14501;52.282;10.560;2023-01-09T01:22:29;2.38;;;2.15;;
26946;SDS011;14501;52.282;10.560;2023-01-09T01:24:55;1.90;;;1.70;;
26946;SDS011;14501;52.282;10.560;2023-01-09T01:27:20;2.75;;;2.00;;
26946;SDS011;14501;52.282;10.560;2023-01-09T01:29:46;1.85;;;1.73;;
26946;SDS011;14501;52.282;10.560;2023-01-09T01:32:12;3.28;;;1.95;;
26946;SDS011;14501;52.282;10.560;2023-01-09T01:34:38;1.70;;;1.60;;
26946;SDS011;14501;52.282;10.560;2023-01-09T01:37:03;2.10;;;1.90;;
26946;SDS011;14501;52.282;10.560;2023-01-09T01:39:29;2.42;;;1.88;;
26946;SDS011;14501;52.282;10.560;2023-01-09T01:41:54;2.05;;;1.80;;
26946;SDS011;14501;52.282;10.560;2023-01-09T01:47:26;2.20;;;2.00;;
26946;SDS011;14501;52.282;10.560;2023-01-09T01:49:54;2.70;;;1.88;;
26946;SDS011;14501;52.282;10.560;2023-01-09T01:52:20;2.72;;;2.38;;
26946;SDS011;14501;52.282;10.560;2023-01-09T01:54:47;5.63;;;2.30;;
26946;SDS011;14501;52.282;10.560;2023-01-09T01:57:13;2.60;;;2.33;;
26946;SDS011;14501;52.282;10.560;2023-01-09T01:59:40;3.65;;;2.60;;
26946;SDS011;14501;52.282;10.560;2023-01-09T02:02:14;2.85;;;2.42;;
26946;SDS011;14501;52.282;10.560;2023-01-09T02:04:44;4.15;;;2.80;;
26946;SDS011;14501;52.282;10.560;2023-01-09T02:07:11;5.43;;;3.10;;
26946;SDS011;14501;52.282;10.560;2023-01-09T02:09:38;4.28;;;2.58;;
26946;SDS011;14501;52.282;10.560;2023-01-09T02:14:57;3.78;;;3.20;;
26946;SDS011;14501;52.282;10.560;2023-01-09T02:25:32;5.38;;;3.65;;
26946;SDS011;14501;52.282;10.560;2023-01-09T02:33:38;5.32;;;3.60;;
26946;SDS011;14501;52.282;10.560;2023-01-09T02:36:20;5.45;;;3.75;;
26946;SDS011;14501;52.282;10.560;2023-01-09T02:44:11;5.30;;;4.03;;
26946;SDS011;14501;52.282;10.560;2023-01-09T02:46:37;6.78;;;3.95;;
26946;SDS011;14501;52.282;10.560;2023-01-09T02:49:02;4.80;;;4.10;;
26946;SDS011;14501;52.282;10.560;2023-01-09T02:51:32;5.68;;;4.43;;
26946;SDS011;14501;52.282;10.560;2023-01-09T02:57:24;5.43;;;4.20;;
26946;SDS011;14501;52.282;10.560;2023-01-09T03:02:54;4.70;;;4.00;;
26946;SDS011;14501;52.282;10.560;2023-01-09T03:05:31;5.75;;;3.92;;
26946;SDS011;14501;52.282;10.560;2023-01-09T03:08:07;6.25;;;4.28;;
26946;SDS011;14501;52.282;10.560;2023-01-09T03:10:47;5.75;;;4.28;;
26946;SDS011;14501;52.282;10.560;2023-01-09T03:13:30;8.35;;;4.47;;
26946;SDS011;14501;52.282;10.560;2023-01-09T03:16:01;7.17;;;5.10;;
26946;SDS011;14501;52.282;10.560;2023-01-09T03:18:30;8.30;;;5.30;;
26946;SDS011;14501;52.282;10.560;2023-01-09T03:20:58;8.43;;;5.13;;
26946;SDS011;14501;52.282;10.560;2023-01-09T03:23:24;6.72;;;5.03;;
26946;SDS011;14501;52.282;10.560;2023-01-09T03:25:49;6.38;;;4.90;;
26946;SDS011;14501;52.282;10.560;2023-01-09T03:28:26;8.52;;;4.78;;
26946;SDS011;14501;52.282;10.560;2023-01-09T03:30:53;5.97;;;4.93;;
26946;SDS011;14501;52.282;10.560;2023-01-09T03:33:19;7.93;;;4.50;;
26946;SDS011;14501;52.282;10.560;2023-01-09T03:35:44;5.75;;;4.70;;
26946;SDS011;14501;52.282;10.560;2023-01-09T03:38:10;6.43;;;4.47;;
26946;SDS011;14501;52.282;10.560;2023-01-09T03:40:36;6.47;;;4.75;;
26946;SDS011;14501;52.282;10.560;2023-01-09T03:43:01;5.65;;;4.57;;
26946;SDS011;14501;52.282;10.560;2023-01-09T03:45:27;6.38;;;4.82;;
26946;SDS011;14501;52.282;10.560;2023-01-09T03:47:53;8.05;;;4.75;;
26946;SDS011;14501;52.282;10.560;2023-01-09T03:50:18;6.15;;;4.45;;
26946;SDS011;14501;52.282;10.560;2023-01-09T03:52:44;7.40;;;5.18;;
26946;SDS011;14501;52.282;10.560;2023-01-09T03:55:09;7.65;;;5.18;;
26946;SDS011;14501;52.282;10.560;2023-01-09T03:57:35;7.35;;;5.25;;
26946;SDS011;14501;52.282;10.560;2023-01-09T04:00:01;8.35;;;4.93;;
26946;SDS011;14501;52.282;10.560;2023-01-09T04:02:27;5.97;;;5.35;;
26946;SDS011;14501;52.282;10.560;2023-01-09T04:04:53;6.65;;;4.97;;
26946;SDS011;14501;52.282;10.560;2023-01-09T04:07:19;6.53;;;5.10;;
26946;SDS011;14501;52.282;10.560;2023-01-09T04:09:45;7.20;;;5.50;;
26946;SDS011;14501;52.282;10.560;2023-01-09T04:12:10;9.00;;;5.15;;
26946;SDS011;14501;52.282;10.560;2023-01-09T04:14:36;7.85;;;5.40;;
26946;SDS011;14501;52.282;10.560;2023-01-09T04:17:01;8.63;;;5.53;;
26946;SDS011;14501;52.282;10.560;2023-01-09T04:19:27;10.75;;;5.38;;
26946;SDS011;14501;52.282;10.560;2023-01-09T04:21:53;8.00;;;5.45;;
26946;SDS011;14501;52.282;10.560;2023-01-09T04:24:18;6.40;;;5.13;;
26946;SDS011;14501;52.282;10.560;2023-01-09T04:26:44;7.22;;;5.20;;
26946;SDS011;14501;52.282;10.560;2023-01-09T04:29:09;9.02;;;5.85;;
26946;SDS011;14501;52.282;10.560;2023-01-09T04:31:35;7.85;;;5.07;;
26946;SDS011;14501;52.282;10.560;2023-01-09T04:34:00;7.57;;;5.63;;
26946;SDS011;14501;52.282;10.560;2023-01-09T04:36:26;7.90;;;5.63;;
26946;SDS011;14501;52.282;10.560;2023-01-09T04:38:51;9.70;;;5.88;;
26946;SDS011;14501;52.282;10.560;2023-01-09T04:41:17;7.60;;;5.70;;
26946;SDS011;14501;52.282;10.560;2023-01-09T04:44:02;7.15;;;5.63;;
26946;SDS011;14501;52.282;10.560;2023-01-09T04:46:27;9.02;;;5.80;;
26946;SDS011;14501;52.282;10.560;2023-01-09T04:48:53;8.45;;;5.45;;
26946;SDS011;14501;52.282;10.560;2023-01-09T04:51:18;8.57;;;6.28;;
26946;SDS011;14501;52.282;10.560;2023-01-09T04:53:44;8.02;;;6.00;;
26946;SDS011;14501;52.282;10.560;2023-01-09T04:56:10;10.48;;;6.13;;
26946;SDS011;14501;52.282;10.560;2023-01-09T04:58:35;9.93;;;6.10;;
26946;SDS011;14501;52.282;10.560;2023-01-09T05:01:01;9.18;;;6.45;;
26946;SDS011;14501;52.282;10.560;2023-01-09T05:03:26;10.00;;;6.78;;
26946;SDS011;14501;52.282;10.560;2023-01-09T05:05:52;9.30;;;6.45;;
26946;SDS011;14501;52.282;10.560;2023-01-09T05:08:17;10.70;;;6.97;;
26946;SDS011;14501;52.282;10.560;2023-01-09T05:10:43;9.27;;;6.88;;
26946;SDS011;14501;52.282;10.560;2023-01-09T05:13:09;12.93;;;6.93;;
26946;SDS011;14501;52.282;10.560;2023-01-09T05:15:34;12.02;;;6.90;;
26946;SDS011;14501;52.282;10.560;2023-01-09T05:18:00;9.93;;;6.85;;
26946;SDS011;14501;52.282;10.560;2023-01-09T05:20:25;10.68;;;7.38;;
26946;SDS011;14501;52.282;10.560;2023-01-09T05:22:51;10.40;;;7.10;;
26946;SDS011;14501;52.282;10.560;2023-01-09T05:25:16;11.00;;;7.53;;
26946;SDS011;14501;52.282;10.560;2023-01-09T05:27:42;11.95;;;7.63;;
26946;SDS011;14501;52.282;10.560;2023-01-09T05:30:10;11.95;;;7.47;;
26946;SDS011;14501;52.282;10.560;2023-01-09T05:32:37;11.45;;;7.40;;
26946;SDS011;14501;52.282;10.560;2023-01-09T05:35:02;11.25;;;7.30;;
26946;SDS011;14501;52.282;10.560;2023-01-09T05:37:28;9.48;;;7.22;;
26946;SDS011;14501;52.282;10.560;2023-01-09T05:39:53;11.98;;;7.45;;
26946;SDS011;14501;52.282;10.560;2023-01-09T05:42:19;11.18;;;7.63;;
26946;SDS011;14501;52.282;10.560;2023-01-09T05:44:45;11.27;;;7.60;;
26946;SDS011;14501;52.282;10.560;2023-01-09T05:47:11;10.02;;;7.10;;
26946;SDS011;14501;52.282;10.560;2023-01-09T05:49:36;12.73;;;7.88;;
26946;SDS011;14501;52.282;10.560;2023-01-09T05:52:02;13.40;;;7.90;;
26946;SDS011;14501;52.282;10.560;2023-01-09T05:54:28;19.25;;;8.55;;
26946;SDS011;14501;52.282;10.560;2023-01-09T05:56:54;14.45;;;7.75;;
26946;SDS011;14501;52.282;10.560;2023-01-09T05:59:20;15.13;;;6.80;;
26946;SDS011;14501;52.282;10.560;2023-01-09T06:01:46;10.38;;;6.38;;
26946;SDS011;14501;52.282;10.560;2023-01-09T06:04:12;9.65;;;6.82;;
26946;SDS011;14501;52.282;10.560;2023-01-09T06:06:37;8.70;;;6.45;;
26946;SDS011;14501;52.282;10.560;2023-01-09T06:09:04;11.68;;;6.63;;
26946;SDS011;14501;52.282;10.560;2023-01-09T06:11:30;8.85;;;5.80;;
26946;SDS011;14501;52.282;10.560;2023-01-09T06:13:59;8.32;;;5.57;;
26946;SDS011;14501;52.282;10.560;2023-01-09T06:16:25;8.63;;;6.53;;
26946;SDS011;14501;52.282;10.560;2023-01-09T06:18:51;8.82;;;5.95;;
26946;SDS011;14501;52.282;10.560;2023-01-09T06:21:17;8.52;;;5.72;;
26946;SDS011;14501;52.282;10.560;2023-01-09T06:23:42;7.95;;;5.32;;
26946;SDS011;14501;52.282;10.560;2023-01-09T06:26:08;7.32;;;5.60;;
26946;SDS011;14501;52.282;10.560;2023-01-09T06:28:34;9.02;;;5.07;;
26946;SDS011;14501;52.282;10.560;2023-01-09T06:31:00;7.50;;;5.32;;
26946;SDS011;14501;52.282;10.560;2023-01-09T06:33:25;6.53;;;4.95;;
26946;SDS011;14501;52.282;10.560;2023-01-09T06:35:51;6.80;;;4.63;;
26946;SDS011;14501;52.282;10.560;2023-01-09T06:38:17;5.50;;;3.97;;
26946;SDS011;14501;52.282;10.560;2023-01-09T06:40:43;5.03;;;3.70;;
26946;SDS011;14501;52.282;10.560;2023-01-09T06:43:08;4.00;;;3.15;;
26946;SDS011;14501;52.282;10.560;2023-01-09T06:45:34;4.25;;;2.78;;
26946;SDS011;14501;52.282;10.560;2023-01-09T06:48:00;4.90;;;4.13;;
26946;SDS011;14501;52.282;10.560;2023-01-09T06:50:25;4.20;;;2.92;;
26946;SDS011;14501;52.282;10.560;2023-01-09T06:52:51;3.67;;;2.53;;
26946;SDS011;14501;52.282;10.560;2023-01-09T06:55:16;4.32;;;2.67;;
26946;SDS011;14501;52.282;10.560;2023-01-09T06:57:42;3.35;;;2.72;;
26946;SDS011;14501;52.282;10.560;2023-01-09T07:00:08;3.42;;;2.85;;
26946;SDS011;14501;52.282;10.560;2023-01-09T07:02:34;3.67;;;2.60;;
26946;SDS011;14501;52.282;10.560;2023-01-09T07:05:00;3.58;;;2.78;;
26946;SDS011;14501;52.282;10.560;2023-01-09T07:07:25;3.70;;;2.60;;
26946;SDS011;14501;52.282;10.560;2023-01-09T07:09:51;4.13;;;3.10;;
26946;SDS011;14501;52.282;10.560;2023-01-09T07:12:16;4.43;;;2.85;;
26946;SDS011;14501;52.282;10.560;2023-01-09T07:14:42;4.57;;;3.28;;
26946;SDS011;14501;52.282;10.560;2023-01-09T07:17:08;5.18;;;4.38;;
26946;SDS011;14501;52.282;10.560;2023-01-09T07:19:36;5.05;;;3.50;;
26946;SDS011;14501;52.282;10.560;2023-01-09T07:22:02;3.65;;;3.25;;
26946;SDS011;14501;52.282;10.560;2023-01-09T07:24:27;5.45;;;3.65;;
26946;SDS011;14501;52.282;10.560;2023-01-09T07:26:53;4.18;;;3.55;;
26946;SDS011;14501;52.282;10.560;2023-01-09T07:29:18;7.25;;;4.28;;
26946;SDS011;14501;52.282;10.560;2023-01-09T07:31:44;8.32;;;3.92;;
26946;SDS011;14501;52.282;10.560;2023-01-09T07:34:09;6.70;;;3.63;;
26946;SDS011;14501;52.282;10.560;2023-01-09T07:36:35;5.13;;;3.92;;
26946;SDS011;14501;52.282;10.560;2023-01-09T07:39:01;5.57;;;4.07;;
26946;SDS011;14501;52.282;10.560;2023-01-09T07:41:26;5.20;;;4.05;;
26946;SDS011;14501;52.282;10.560;2023-01-09T07:43:52;8.85;;;4.90;;
26946;SDS011;14501;52.282;10.560;2023-01-09T07:46:17;6.10;;;4.57;;
26946;SDS011;14501;52.282;10.560;2023-01-09T07:48:43;8.20;;;4.22;;
26946;SDS011;14501;52.282;10.560;2023-01-09T07:51:08;7.22;;;4.40;;
26946;SDS011;14501;52.282;10.560;2023-01-09T07:53:34;6.25;;;4.20;;
26946;SDS011;14501;52.282;10.560;2023-01-09T07:56:00;6.55;;;4.00;;
26946;SDS011;14501;52.282;10.560;2023-01-09T07:58:25;8.48;;;4.68;;
26946;SDS011;14501;52.282;10.560;2023-01-09T08:00:51;12.35;;;4.22;;
26946;SDS011;14501;52.282;10.560;2023-01-09T08:03:16;8.82;;;5.43;;
26946;SDS011;14501;52.282;10.560;2023-01-09T08:05:42;11.65;;;4.63;;
26946;SDS011;14501;52.282;10.560;2023-01-09T08:08:08;6.97;;;4.70;;
26946;SDS011;14501;52.282;10.560;2023-01-09T08:10:33;7.45;;;4.63;;
26946;SDS011;14501;52.282;10.560;2023-01-09T08:12:59;10.98;;;4.90;;
26946;SDS011;14501;52.282;10.560;2023-01-09T08:15:24;7.28;;;4.88;;
26946;SDS011;14501;52.282;10.560;2023-01-09T08:17:52;6.45;;;4.68;;
26946;SDS011;14501;52.282;10.560;2023-01-09T08:20:18;8.13;;;4.72;;
26946;SDS011;14501;52.282;10.560;2023-01-09T08:22:45;9.02;;;5.32;;
26946;SDS011;14501;52.282;10.560;2023-01-09T08:25:15;10.00;;;5.82;;
26946;SDS011;14501;52.282;10.560;2023-01-09T08:27:42;9.63;;;6.10;;
26946;SDS011;14501;52.282;10.560;2023-01-09T08:30:09;9.00;;;5.13;;
26946;SDS011;14501;52.282;10.560;2023-01-09T08:32:35;10.32;;;5.70;;
26946;SDS011;14501;52.282;10.560;2023-01-09T08:35:02;11.73;;;6.40;;
26946;SDS011;14501;52.282;10.560;2023-01-09T08:37:28;10.55;;;6.30;;
26946;SDS011;14501;52.282;10.560;2023-01-09T08:39:53;11.73;;;6.18;;
26946;SDS011;14501;52.282;10.560;2023-01-09T08:42:20;10.50;;;5.80;;
26946;SDS011;14501;52.282;10.560;2023-01-09T08:45:05;8.18;;;5.10;;
26946;SDS011;14501;52.282;10.560;2023-01-09T08:47:52;8.38;;;4.30;;
26946;SDS011;14501;52.282;10.560;2023-01-09T08:50:17;7.47;;;4.45;;
26946;SDS011;14501;52.282;10.560;2023-01-09T08:52:43;8.18;;;4.38;;
26946;SDS011;14501;52.282;10.560;2023-01-09T08:55:09;10.00;;;4.57;;
26946;SDS011;14501;52.282;10.560;2023-01-09T08:57:34;5.50;;;4.10;;
26946;SDS011;14501;52.282;10.560;2023-01-09T09:00:00;7.60;;;4.47;;
26946;SDS011;14501;52.282;10.560;2023-01-09T09:02:26;7.47;;;3.88;;
26946;SDS011;14501;52.282;10.560;2023-01-09T09:04:51;8.90;;;3.38;;
26946;SDS011;14501;52.282;10.560;2023-01-09T09:07:20;4.90;;;3.13;;
26946;SDS011;14501;52.282;10.560;2023-01-09T09:09:53;7.00;;;3.00;;
26946;SDS011;14501;52.282;10.560;2023-01-09T09:12:19;6.20;;;3.35;;
26946;SDS011;14501;52.282;10.560;2023-01-09T09:14:46;4.85;;;2.90;;
26946;SDS011;14501;52.282;10.560;2023-01-09T09:17:30;6.53;;;2.90;;
26946;SDS011;14501;52.282;10.560;2023-01-09T09:19:57;5.00;;;2.72;;
26946;SDS011;14501;52.282;10.560;2023-01-09T09:22:24;7.25;;;2.75;;
26946;SDS011;14501;52.282;10.560;2023-01-09T09:24:49;6.82;;;2.83;;
26946;SDS011;14501;52.282;10.560;2023-01-09T09:27:15;3.33;;;2.50;;
26946;SDS011;14501;52.282;10.560;2023-01-09T09:29:41;4.53;;;2.80;;
26946;SDS011;14501;52.282;10.560;2023-01-09T09:32:06;5.45;;;2.35;;
26946;SDS011;14501;52.282;10.560;2023-01-09T09:34:32;2.80;;;2.10;;
26946;SDS011;14501;52.282;10.560;2023-01-09T09:36:57;5.78;;;2.80;;
26946;SDS011;14501;52.282;10.560;2023-01-09T09:39:23;4.20;;;2.33;;
26946;SDS011;14501;52.282;10.560;2023-01-09T09:45:39;5.95;;;1.65;;
26946;SDS011;14501;52.282;10.560;2023-01-09T09:48:26;4.40;;;1.77;;
26946;SDS011;14501;52.282;10.560;2023-01-09T09:53:28;3.88;;;1.83;;
26946;SDS011;14501;52.282;10.560;2023-01-09T09:55:56;2.85;;;1.33;;
26946;SDS011;14501;52.282;10.560;2023-01-09T09:58:33;4.30;;;1.50;;
26946;SDS011;14501;52.282;10.560;2023-01-09T10:01:17;4.47;;;1.27;;
26946;SDS011;14501;52.282;10.560;2023-01-09T10:03:48;4.18;;;1.33;;
26946;SDS011;14501;52.282;10.560;2023-01-09T10:06:20;3.63;;;1.30;;
26946;SDS011;14501;52.282;10.560;2023-01-09T10:09:01;3.03;;;1.30;;
26946;SDS011;14501;52.282;10.560;2023-01-09T10:11:40;4.32;;;1.83;;
26946;SDS011;14501;52.282;10.560;2023-01-09T10:14:10;7.97;;;1.73;;
26946;SDS011;14501;52.282;10.560;2023-01-09T10:22:32;6.28;;;1.55;;
26946;SDS011;14501;52.282;10.560;2023-01-09T10:28:14;6.05;;;1.23;;
26946;SDS011;14501;52.282;10.560;2023-01-09T10:30:48;4.07;;;1.20;;
26946;SDS011;14501;52.282;10.560;2023-01-09T10:38:55;5.65;;;1.40;;
26946;SDS011;14501;52.282;10.560;2023-01-09T10:41:34;3.90;;;1.35;;
26946;SDS011;14501;52.282;10.560;2023-01-09T10:44:46;4.13;;;1.08;;
26946;SDS011;14501;52.282;10.560;2023-01-09T10:47:01;5.75;;;1.05;;
26946;SDS011;14501;52.282;10.560;2023-01-09T10:49:32;3.60;;;1.23;;
26946;SDS011;14501;52.282;10.560;2023-01-09T10:52:03;3.15;;;1.30;;
26946;SDS011;14501;52.282;10.560;2023-01-09T10:54:39;1.30;;;1.20;;
26946;SDS011;14501;52.282;10.560;2023-01-09T10:57:26;3.55;;;1.23;;
26946;SDS011;14501;52.282;10.560;2023-01-09T11:00:02;6.63;;;1.20;;
26946;SDS011;14501;52.282;10.560;2023-01-09T11:02:30;2.03;;;1.02;;
26946;SDS011;14501;52.282;10.560;2023-01-09T11:04:57;3.03;;;0.98;;
26946;SDS011;14501;52.282;10.560;2023-01-09T11:07:25;1.00;;;0.90;;
26946;SDS011;14501;52.282;10.560;2023-01-09T11:12:25;2.85;;;1.05;;
26946;SDS011;14501;52.282;10.560;2023-01-09T11:14:52;2.15;;;0.90;;
26946;SDS011;14501;52.282;10.560;2023-01-09T11:17:19;2.88;;;0.90;;
26946;SDS011;14501;52.282;10.560;2023-01-09T11:20:09;4.25;;;1.20;;
26946;SDS011;14501;52.282;10.560;2023-01-09T11:22:51;2.45;;;0.80;;
26946;SDS011;14501;52.282;10.560;2023-01-09T11:25:23;2.33;;;1.00;;
26946;SDS011;14501;52.282;10.560;2023-01-09T11:28:04;2.90;;;0.82;;
26946;SDS011;14501;52.282;10.560;2023-01-09T11:30:34;6.18;;;1.35;;
26946;SDS011;14501;52.282;10.560;2023-01-09T11:33:11;2.63;;;1.10;;
26946;SDS011;14501;52.282;10.560;2023-01-09T11:35:47;2.13;;;0.93;;
26946;SDS011;14501;52.282;10.560;2023-01-09T11:38:22;1.08;;;0.60;;
26946;SDS011;14501;52.282;10.560;2023-01-09T11:43:36;3.97;;;0.80;;
26946;SDS011;14501;52.282;10.560;2023-01-09T11:46:04;1.55;;;0.70;;
26946;SDS011;14501;52.282;10.560;2023-01-09T11:48:39;2.45;;;0.90;;
26946;SDS011;14501;52.282;10.560;2023-01-09T11:51:23;1.55;;;0.82;;
26946;SDS011;14501;52.282;10.560;2023-01-09T11:56:54;0.93;;;0.60;;
26946;SDS011;14501;52.282;10.560;2023-01-09T11:59:22;3.17;;;1.30;;
26946;SDS011;14501;52.282;10.560;2023-01-09T12:01:54;2.83;;;0.75;;
26946;SDS011;14501;52.282;10.560;2023-01-09T12:04:34;2.97;;;0.88;;
26946;SDS011;14501;52.282;10.560;2023-01-09T12:24:58;4.05;;;0.68;;
26946;SDS011;14501;52.282;10.560;2023-01-09T12:39:22;1.48;;;0.85;;
26946;SDS011;14501;52.282;10.560;2023-01-09T12:44:49;1.98;;;0.63;;
26946;SDS011;14501;52.282;10.560;2023-01-09T12:53:04;1.20;;;0.80;;
26946;SDS011;14501;52.282;10.560;2023-01-09T12:56:03;2.80;;;0.70;;
26946;SDS011;14501;52.282;10.560;2023-01-09T12:58:39;1.38;;;0.73;;
26946;SDS011;14501;52.282;10.560;2023-01-09T13:01:31;2.95;;;1.00;;
26946;SDS011;14501;52.282;10.560;2023-01-09T13:04:08;1.98;;;1.00;;
26946;SDS011;14501;52.282;10.560;2023-01-09T13:06:44;1.90;;;1.02;;
26946;SDS011;14501;52.282;10.560;2023-01-09T13:09:20;1.85;;;0.93;;
26946;SDS011;14501;52.282;10.560;2023-01-09T13:11:56;2.97;;;1.05;;
26946;SDS011;14501;52.282;10.560;2023-01-09T13:14:45;2.33;;;1.13;;
26946;SDS011;14501;52.282;10.560;2023-01-09T13:17:16;4.20;;;2.03;;
26946;SDS011;14501;52.282;10.560;2023-01-09T13:19:46;3.83;;;1.80;;
26946;SDS011;14501;52.282;10.560;2023-01-09T13:22:12;1.70;;;1.02;;
26946;SDS011;14501;52.282;10.560;2023-01-09T13:27:36;4.38;;;0.98;;
26946;SDS011;14501;52.282;10.560;2023-01-09T13:35:56;2.78;;;1.02;;
26946;SDS011;14501;52.282;10.560;2023-01-09T13:38:24;1.73;;;0.80;;
26946;SDS011;14501;52.282;10.560;2023-01-09T13:44:20;1.80;;;0.95;;
26946;SDS011;14501;52.282;10.560;2023-01-09T13:46:49;2.78;;;1.10;;
26946;SDS011;14501;52.282;10.560;2023-01-09T13:57:36;7.88;;;1.10;;
26946;SDS011;14501;52.282;10.560;2023-01-09T14:05:01;1.17;;;0.70;;
26946;SDS011;14501;52.282;10.560;2023-01-09T14:07:28;1.58;;;0.50;;
26946;SDS011;14501;52.282;10.560;2023-01-09T14:10:02;3.80;;;1.00;;
26946;SDS011;14501;52.282;10.560;2023-01-09T14:17:32;0.82;;;0.55;;
26946;SDS011;14501;52.282;10.560;2023-01-09T14:20:00;2.72;;;0.70;;
26946;SDS011;14501;52.282;10.560;2023-01-09T14:22:31;0.88;;;0.80;;
26946;SDS011;14501;52.282;10.560;2023-01-09T14:25:12;1.85;;;0.70;;
26946;SDS011;14501;52.282;10.560;2023-01-09T14:27:50;4.32;;;0.60;;
26946;SDS011;14501;52.282;10.560;2023-01-09T14:30:40;6.90;;;1.30;;
26946;SDS011;14501;52.282;10.560;2023-01-09T14:41:24;2.25;;;0.82;;
26946;SDS011;14501;52.282;10.560;2023-01-09T14:46:48;2.45;;;0.95;;
26946;SDS011;14501;52.282;10.560;2023-01-09T14:52:06;2.33;;;0.70;;
26946;SDS011;14501;52.282;10.560;2023-01-09T14:54:45;0.80;;;0.70;;
26946;SDS011;14501;52.282;10.560;2023-01-09T14:57:23;2.67;;;0.70;;
26946;SDS011;14501;52.282;10.560;2023-01-09T14:59:54;0.60;;;0.60;;
26946;SDS011;14501;52.282;10.560;2023-01-09T15:02:42;1.20;;;0.60;;
26946;SDS011;14501;52.282;10.560;2023-01-09T15:05:10;1.63;;;0.50;;
26946;SDS011;14501;52.282;10.560;2023-01-09T15:07:43;3.33;;;0.90;;
26946;SDS011;14501;52.282;10.560;2023-01-09T15:10:22;1.58;;;0.85;;
26946;SDS011;14501;52.282;10.560;2023-01-09T15:18:24;1.45;;;0.82;;
26946;SDS011;14501;52.282;10.560;2023-01-09T15:20:56;2.10;;;0.82;;
26946;SDS011;14501;52.282;10.560;2023-01-09T15:23:26;3.78;;;0.90;;
26946;SDS011;14501;52.282;10.560;2023-01-09T15:25:54;0.82;;;0.80;;
26946;SDS011;14501;52.282;10.560;2023-01-09T15:28:25;0.77;;;0.77;;
26946;SDS011;14501;52.282;10.560;2023-01-09T15:31:06;1.85;;;1.00;;
26946;SDS011;14501;52.282;10.560;2023-01-09T15:33:40;1.42;;;0.70;;
26946;SDS011;14501;52.282;10.560;2023-01-09T15:36:17;1.35;;;0.60;;
26946;SDS011;14501;52.282;10.560;2023-01-09T15:38:45;2.63;;;1.00;;
26946;SDS011;14501;52.282;10.560;2023-01-09T15:41:23;2.58;;;1.17;;
26946;SDS011;14501;52.282;10.560;2023-01-09T15:44:20;2.45;;;0.70;;
26946;SDS011;14501;52.282;10.560;2023-01-09T15:46:54;2.33;;;0.98;;
26946;SDS011;14501;52.282;10.560;2023-01-09T15:49:22;2.35;;;0.82;;
26946;SDS011;14501;52.282;10.560;2023-01-09T15:51:49;2.42;;;0.93;;
26946;SDS011;14501;52.282;10.560;2023-01-09T15:54:16;2.38;;;0.90;;
26946;SDS011;14501;52.282;10.560;2023-01-09T15:56:47;2.10;;;1.03;;
26946;SDS011;14501;52.282;10.560;2023-01-09T15:59:23;3.28;;;0.90;;
26946;SDS011;14501;52.282;10.560;2023-01-09T16:01:58;1.88;;;1.02;;
26946;SDS011;14501;52.282;10.560;2023-01-09T16:04:48;3.05;;;1.38;;
26946;SDS011;14501;52.282;10.560;2023-01-09T16:07:17;2.78;;;1.00;;
26946;SDS011;14501;52.282;10.560;2023-01-09T16:09:44;2.53;;;1.17;;
26946;SDS011;14501;52.282;10.560;2023-01-09T16:12:19;5.15;;;1.10;;
26946;SDS011;14501;52.282;10.560;2023-01-09T16:14:54;1.67;;;0.80;;
26946;SDS011;14501;52.282;10.560;2023-01-09T16:17:25;0.82;;;0.82;;
26946;SDS011;14501;52.282;10.560;2023-01-09T16:20:13;2.72;;;1.17;;
26946;SDS011;14501;52.282;10.560;2023-01-09T16:22:52;2.97;;;0.90;;
26946;SDS011;14501;52.282;10.560;2023-01-09T16:30:55;3.75;;;1.30;;
26946;SDS011;14501;52.282;10.560;2023-01-09T16:33:31;1.27;;;1.17;;
26946;SDS011;14501;52.282;10.560;2023-01-09T16:35:57;1.98;;;0.90;;
26946;SDS011;14501;52.282;10.560;2023-01-09T16:38:23;1.75;;;1.10;;
26946;SDS011;14501;52.282;10.560;2023-01-09T16:41:03;1.75;;;1.20;;
26946;SDS011;14501;52.282;10.560;2023-01-09T16:43:48;4.57;;;1.10;;
26946;SDS011;14501;52.282;10.560;2023-01-09T16:46:16;1.38;;;1.10;;
26946;SDS011;14501;52.282;10.560;2023-01-09T16:48:44;1.38;;;1.27;;
26946;SDS011;14501;52.282;10.560;2023-01-09T16:51:13;3.55;;;1.25;;
26946;SDS011;14501;52.282;10.560;2023-01-09T16:53:41;1.67;;;1.40;;
26946;SDS011;14501;52.282;10.560;2023-01-09T16:56:08;2.17;;;1.42;;
26946;SDS011;14501;52.282;10.560;2023-01-09T16:58:38;2.45;;;1.75;;
26946;SDS011;14501;52.282;10.560;2023-01-09T17:01:04;3.35;;;1.88;;
26946;SDS011;14501;52.282;10.560;2023-01-09T17:03:30;3.03;;;1.50;;
26946;SDS011;14501;52.282;10.560;2023-01-09T17:05:57;3.60;;;1.85;;
26946;SDS011;14501;52.282;10.560;2023-01-09T17:08:25;2.85;;;1.55;;
26946;SDS011;14501;52.282;10.560;2023-01-09T17:10:54;1.73;;;1.40;;
26946;SDS011;14501;52.282;10.560;2023-01-09T17:13:20;2.40;;;1.20;;
26946;SDS011;14501;52.282;10.560;2023-01-09T17:15:46;1.75;;;1.30;;
26946;SDS011;14501;52.282;10.560;2023-01-09T17:18:13;2.08;;;1.30;;
26946;SDS011;14501;52.282;10.560;2023-01-09T17:20:40;2.78;;;1.40;;